Accueil
METAR-TAF:

METAR-TAF

Aéroports :

Nîmes, France

Aéroport de Nîmes–Alès–Camargue–Cévennes. Garons

latitude: 43-45N, longitude: 004-25E, altitude: 94 m

Observation

Le bulletin a été fait il y a 31 minutes, à 06:00 UTC
Vent 3 kt de nord/nord-ouest
Température 2°C
Humidité 93%
Pression 1008 hPa
Visibilité 10 km ou plus
pas de nuages en-dessous de 1500 mètres et pas de cumulonimbus.

METAR: LFTW 120600Z AUTO 33003KT CAVOK 02/01 Q1008 NOSIG

Heure: 07:31 (06:31 UTC)

Prévision

Le bulletin a été fait il y a 4 heures et 31 minutes, à 02:00 UTC
Prévision valable du 12 à 03 UTC au 13 à 03 UTC
Vent 10 kt de ouest
Visibilité 10 km ou plus
pas de nuages en-dessous de 1500 mètres et pas de cumulonimbus.
Evoluant progressivement
du 12 à 05 UTC au 12 à 07 UTC
Vent 4 kt de direction variable

TAF: LFTW 120200Z 1203/1303 28010KT CAVOK BECMG 1205/1207 VRB04KT

Observations et prévisions météorologiques de plus de 4000 aéroports (messages METAR et TAF).

Les stations disponibles sont représentées par des disques jaunes et rouges sur la carte.

Passer la souris dessus pour voir le nom de la station.

Cliquer dessus pour voir les observations et prévisions météorologiques.

Pour changer de carte: cliquez sur les boutons verts avec une croix noire pour zoomer, sur le bouton vert avec un tiret pour effectuer un zoom arrière, ou sur les flèches vertes pour les cartes adjacentes.


METAR-TAF: